Time;durP1;ratioP1;P1;durP2;ratioP2;P2;SDS_P1;SDS_P2;PMS_P1;PMS_P2;Temp;Humidity;BMP_temperature;BMP_pressure;BME280_temperature;BME280_humidity;BME280_pressure;Samples;Min_cycle;Max_cycle;Signal;HPM_P1;HPM_P2
2021/12/01 00:01:03;;;;;;;;;26.00;26.00;8.20;42.70;;;;;;5069331;28;8749;-70
2021/12/01 00:03:29;;;;;;;;;18.75;18.75;8.10;42.50;;;;;;5072724;28;8757;-70
2021/12/01 00:05:55;;;;;;;;;13.25;13.25;8.10;42.10;;;;;;5074188;28;8862;-69
2021/12/01 00:08:21;;;;;;;;;10.33;10.33;8.20;42.10;;;;;;5075133;28;8776;-70
2021/12/01 00:10:47;;;;;;;;;15.50;14.75;8.30;41.90;;;;;;5074896;28;9371;-69
2021/12/01 00:13:16;;;;;;;;;12.00;11.00;8.40;41.80;;;;;;5074814;28;8780;-70
2021/12/01 00:15:43;;;;;;;;;13.00;13.00;8.40;41.50;;;;;;5074791;28;8942;-72
2021/12/01 00:18:09;;;;;;;;;12.00;12.00;8.40;41.70;;;;;;5073723;28;8772;-71
2021/12/01 00:20:36;;;;;;;;;8.00;8.00;8.40;41.60;;;;;;5074609;28;8788;-72
2021/12/01 00:23:03;;;;;;;;;16.67;16.67;8.50;41.50;;;;;;5074692;28;8753;-71
2021/12/01 00:25:29;;;;;;;;;10.33;10.33;8.50;41.60;;;;;;5074934;28;9532;-70
2021/12/01 00:27:56;;;;;;;;;13.33;13.33;8.60;41.50;;;;;;5074606;28;8780;-73
2021/12/01 00:30:23;;;;;;;;;10.33;10.33;8.50;41.70;;;;;;5074665;28;8776;-73
2021/12/01 00:32:55;;;;;;;;;12.00;12.00;8.70;41.40;;;;;;5074535;28;8776;-70
2021/12/01 00:35:22;;;;;;;;;9.33;9.33;8.60;41.60;;;;;;5074616;28;8784;-70
2021/12/01 00:37:48;;;;;;;;;14.00;13.00;8.50;41.90;;;;;;5074777;28;8768;-70
2021/12/01 00:40:15;;;;;;;;;13.00;13.00;8.40;41.90;;;;;;5074637;28;8792;-70
2021/12/01 00:42:43;;;;;;;;;12.00;10.67;8.40;42.50;;;;;;5074517;28;8867;-70
2021/12/01 00:45:18;;;;;;;;;12.00;12.00;8.40;42.70;;;;;;5074422;28;8768;-70
2021/12/01 00:47:47;;;;;;;;;11.33;11.33;8.50;42.60;;;;;;5074526;28;8772;-70
2021/12/01 00:50:17;;;;;;;;;13.00;13.00;8.50;42.60;;;;;;5074384;28;8777;-71
2021/12/01 00:52:43;;;;;;;;;19.75;19.75;8.60;42.50;;;;;;5074400;28;8776;-71
2021/12/01 00:55:10;;;;;;;;;18.00;15.50;8.60;42.50;;;;;;5074298;28;8787;-70
2021/12/01 00:57:37;;;;;;;;;16.75;16.50;8.60;42.60;;;;;;5074541;28;9484;-70
2021/12/01 01:00:07;;;;;;;;;14.25;14.25;8.80;42.00;;;;;;5074486;28;8889;-71
2021/12/01 01:02:34;;;;;;;;;15.67;15.67;8.90;42.20;;;;;;5074235;28;8768;-72
2021/12/01 01:04:59;;;;;;;;;15.75;15.50;8.90;42.10;;;;;;5074319;28;8870;-71
2021/12/01 01:07:25;;;;;;;;;18.00;17.33;9.00;42.30;;;;;;5074089;28;8820;-71
2021/12/01 01:09:51;;;;;;;;;16.00;16.00;9.10;42.30;;;;;;5074402;28;8761;-72
2021/12/01 01:17:57;;;;;;;;;15.67;15.67;9.50;41.60;;;;;;5074187;28;8784;-72
2021/12/01 01:20:22;;;;;;;;;17.00;17.00;9.70;41.30;;;;;;5074234;28;8889;-70
2021/12/01 01:22:48;;;;;;;;;15.25;15.25;10.20;40.10;;;;;;5074121;28;8745;-73
2021/12/01 01:25:14;;;;;;;;;26.00;26.00;10.00;41.10;;;;;;5074068;28;8756;-70
2021/12/01 01:27:40;;;;;;;;;47.75;42.75;9.70;41.90;;;;;;5073930;28;8794;-71
2021/12/01 01:30:06;;;;;;;;;50.00;43.25;9.50;43.30;;;;;;5073950;28;8796;-69
2021/12/01 01:32:33;;;;;;;;;48.25;42.50;9.60;43.30;;;;;;5076111;28;8777;-71
2021/12/01 01:34:59;;;;;;;;;62.00;50.75;9.50;44.40;;;;;;5077791;28;8776;-71
2021/12/01 01:37:25;;;;;;;;;56.50;48.00;8.90;46.40;;;;;;5076687;28;8780;-71
2021/12/01 01:39:51;;;;;;;;;58.75;49.75;9.10;46.10;;;;;;5077629;28;9664;-70
2021/12/01 01:42:17;;;;;;;;;58.75;50.00;9.60;44.70;;;;;;5077567;28;9455;-70
2021/12/01 01:44:43;;;;;;;;;58.00;49.50;10.00;43.90;;;;;;5077577;28;8768;-70
2021/12/01 01:47:09;;;;;;;;;60.75;51.50;10.00;43.70;;;;;;5076659;28;8788;-70
2021/12/01 01:49:51;;;;;;;;;57.00;48.50;10.10;44.00;;;;;;5077848;28;8764;-70
2021/12/01 01:52:17;;;;;;;;;80.00;65.00;10.00;44.00;;;;;;5077496;28;8760;-70
2021/12/01 01:54:42;;;;;;;;;71.75;60.00;9.90;43.90;;;;;;5077658;28;8779;-69
2021/12/01 01:57:08;;;;;;;;;69.50;57.00;9.40;44.70;;;;;;5076330;28;9434;-70
2021/12/01 01:59:34;;;;;;;;;61.00;51.00;9.50;44.60;;;;;;5077252;28;8823;-72
2021/12/01 02:02:01;;;;;;;;;59.75;51.25;8.80;46.80;;;;;;5077466;28;8841;-69
2021/12/01 02:04:32;;;;;;;;;51.25;44.00;9.00;46.60;;;;;;5077237;28;8769;-69
2021/12/01 02:06:58;;;;;;;;;50.50;44.25;8.70;47.10;;;;;;5077046;28;8800;-71
2021/12/01 02:09:24;;;;;;;;;59.00;50.00;9.40;45.80;;;;;;5077188;28;8777;-70
2021/12/01 02:11:56;;;;;;;;;63.75;53.00;9.40;45.40;;;;;;5077172;28;8795;-69
2021/12/01 02:14:22;;;;;;;;;60.00;51.75;9.60;45.50;;;;;;5077336;28;9431;-69
2021/12/01 02:16:49;;;;;;;;;60.75;52.00;9.40;46.80;;;;;;5077342;28;8792;-69
2021/12/01 02:19:15;;;;;;;;;50.00;44.00;9.50;46.50;;;;;;5076985;28;8803;-70
2021/12/01 02:21:41;;;;;;;;;51.50;45.00;9.70;45.60;;;;;;5077173;28;8814;-69
2021/12/01 02:24:09;;;;;;;;;66.75;56.00;9.90;44.80;;;;;;5077162;28;9430;-71
2021/12/01 02:26:48;;;;;;;;;58.50;50.00;10.20;44.40;;;;;;5077117;28;8797;-69
2021/12/01 02:29:17;;;;;;;;;58.25;50.00;10.20;44.30;;;;;;5076867;28;8773;-72
2021/12/01 02:31:44;;;;;;;;;70.25;57.50;10.10;44.60;;;;;;5076791;28;8756;-72
2021/12/01 02:34:17;;;;;;;;;75.25;62.00;10.10;44.80;;;;;;5076898;28;8752;-71
2021/12/01 02:36:47;;;;;;;;;75.25;61.00;10.00;43.90;;;;;;5076955;28;8764;-70
2021/12/01 02:39:15;;;;;;;;;82.50;69.00;9.80;45.30;;;;;;5076570;28;8803;-72
2021/12/01 02:41:42;;;;;;;;;88.25;78.25;9.50;46.20;;;;;;5076653;28;8851;-71
2021/12/01 02:44:11;;;;;;;;;94.00;86.75;9.40;46.70;;;;;;5076316;28;8787;-69
2021/12/01 02:46:37;;;;;;;;;90.25;79.50;9.40;46.90;;;;;;5076736;28;9475;-69
2021/12/01 02:49:04;;;;;;;;;84.75;72.00;9.50;46.70;;;;;;5076663;28;8806;-69
2021/12/01 02:51:32;;;;;;;;;85.75;73.00;9.90;46.00;;;;;;5076592;28;9478;-71
2021/12/01 02:53:59;;;;;;;;;84.75;69.75;9.90;45.90;;;;;;5076319;28;8749;-71
2021/12/01 02:56:27;;;;;;;;;88.00;72.25;9.80;46.50;;;;;;5076460;28;8771;-71
2021/12/01 02:58:53;;;;;;;;;83.25;65.75;9.50;46.70;;;;;;5075117;28;8893;-69
2021/12/01 03:01:21;;;;;;;;;78.25;63.75;9.70;45.60;;;;;;5076197;28;8768;-72
2021/12/01 03:03:47;;;;;;;;;67.00;56.00;9.90;46.00;;;;;;5076093;28;8771;-70
2021/12/01 03:06:13;;;;;;;;;75.00;62.50;9.70;45.80;;;;;;5075843;28;8827;-70
2021/12/01 03:08:41;;;;;;;;;74.75;61.25;9.70;46.70;;;;;;5076041;28;8768;-70
2021/12/01 03:11:07;;;;;;;;;71.50;60.00;9.80;46.80;;;;;;5076195;28;9454;-70
2021/12/01 03:13:33;;;;;;;;;77.25;64.00;9.70;46.20;;;;;;5076066;28;9538;-70
2021/12/01 03:15:59;;;;;;;;;76.25;63.00;10.00;46.60;;;;;;5076089;28;8804;-70
2021/12/01 03:18:25;;;;;;;;;63.00;53.75;9.90;47.20;;;;;;5075919;28;8768;-70
2021/12/01 03:20:52;;;;;;;;;69.75;57.75;9.70;47.10;;;;;;5075738;28;8973;-69
2021/12/01 03:23:19;;;;;;;;;72.50;59.75;9.50;47.00;;;;;;5075697;28;8775;-71
2021/12/01 03:25:44;;;;;;;;;75.75;62.75;9.40;48.20;;;;;;5075680;28;8775;-69
2021/12/01 03:28:11;;;;;;;;;66.25;55.25;9.40;48.80;;;;;;5075588;28;8877;-72
2021/12/01 03:30:38;;;;;;;;;65.00;55.00;9.50;48.70;;;;;;5075758;28;9480;-70
2021/12/01 03:33:07;;;;;;;;;80.25;65.25;9.40;49.40;;;;;;5075492;28;8790;-69
2021/12/01 03:35:34;;;;;;;;;78.25;63.00;9.50;49.40;;;;;;5075458;28;8768;-72
2021/12/01 03:37:59;;;;;;;;;76.00;62.50;9.20;49.60;;;;;;5075458;28;8811;-71
2021/12/01 03:40:25;;;;;;;;;83.00;70.25;9.00;48.90;;;;;;5075536;28;8804;-70
2021/12/01 03:42:51;;;;;;;;;80.00;65.00;9.10;48.10;;;;;;5075322;28;8876;-69
2021/12/01 03:45:18;;;;;;;;;86.75;78.00;9.00;49.30;;;;;;5075133;28;8811;-71
2021/12/01 03:47:44;;;;;;;;;108.50;104.00;9.10;50.50;;;;;;5075294;28;8764;-69
2021/12/01 03:50:10;;;;;;;;;93.00;82.00;9.50;51.10;;;;;;5075195;28;8787;-72
2021/12/01 03:52:37;;;;;;;;;87.00;71.50;9.50;50.50;;;;;;5075338;28;8768;-71
2021/12/01 03:55:03;;;;;;;;;87.75;75.75;9.50;49.90;;;;;;5074550;28;8749;-71
2021/12/01 03:57:28;;;;;;;;;107.25;107.00;9.60;49.60;;;;;;5075090;28;8756;-70
2021/12/01 03:59:54;;;;;;;;;128.25;127.00;9.60;50.30;;;;;;5074992;28;8804;-70
2021/12/01 04:02:20;;;;;;;;;135.25;132.50;9.40;51.20;;;;;;5075192;28;9484;-71
2021/12/01 04:04:46;;;;;;;;;137.50;133.50;9.20;52.40;;;;;;5075172;28;8760;-69
2021/12/01 04:07:12;;;;;;;;;154.25;146.50;9.10;52.80;;;;;;5074712;28;8822;-70
2021/12/01 04:09:41;;;;;;;;;148.75;145.00;9.20;52.60;;;;;;5074862;28;8768;-70
2021/12/01 04:12:07;;;;;;;;;152.25;146.00;9.20;52.30;;;;;;5074843;28;9413;-71
2021/12/01 04:14:33;;;;;;;;;144.75;141.50;9.30;51.50;;;;;;5074010;28;8744;-70
2021/12/01 04:16:59;;;;;;;;;152.75;146.00;9.50;51.10;;;;;;5074576;28;8819;-69
2021/12/01 04:19:25;;;;;;;;;147.50;142.50;9.50;51.20;;;;;;5074638;28;8846;-70
2021/12/01 04:21:51;;;;;;;;;134.50;130.25;9.40;51.50;;;;;;5074637;28;8760;-70
2021/12/01 04:24:17;;;;;;;;;138.25;132.25;9.40;51.50;;;;;;5074951;28;9390;-70
2021/12/01 04:26:43;;;;;;;;;122.75;118.00;9.40;51.50;;;;;;5074625;28;9623;-69
2021/12/01 04:29:09;;;;;;;;;128.50;123.75;9.60;51.00;;;;;;5074603;28;8781;-70
2021/12/01 04:31:36;;;;;;;;;136.50;129.25;9.60;51.20;;;;;;5074596;28;8769;-71
2021/12/01 04:34:03;;;;;;;;;110.00;104.50;9.40;51.20;;;;;;5074740;28;8771;-70
2021/12/01 04:36:32;;;;;;;;;91.75;85.50;9.70;50.50;;;;;;5074460;28;8776;-71
2021/12/01 04:38:58;;;;;;;;;89.25;78.50;9.70;48.80;;;;;;5069746;28;8807;-70
2021/12/01 04:41:25;;;;;;;;;91.75;85.50;9.70;48.30;;;;;;5062934;28;8760;-69
2021/12/01 04:43:53;;;;;;;;;110.25;108.00;9.80;48.30;;;;;;5064129;28;8786;-71
2021/12/01 04:46:20;;;;;;;;;113.25;109.25;9.90;48.80;;;;;;5054390;28;8821;-71
2021/12/01 04:48:49;;;;;;;;;102.50;100.75;10.20;48.20;;;;;;5054315;28;8783;-70
2021/12/01 04:51:17;;;;;;;;;112.50;111.00;10.10;48.20;;;;;;5054402;28;8763;-71
2021/12/01 04:53:44;;;;;;;;;99.50;96.00;10.20;47.70;;;;;;5054275;28;8865;-71
2021/12/01 04:56:10;;;;;;;;;73.25;60.00;10.30;47.10;;;;;;5054448;28;8860;-72
2021/12/01 04:58:36;;;;;;;;;55.00;47.25;10.20;46.60;;;;;;5054249;28;8771;-71
2021/12/01 05:01:02;;;;;;;;;52.00;45.75;10.10;46.60;;;;;;5054129;28;8774;-70
2021/12/01 05:03:30;;;;;;;;;48.25;42.75;10.30;46.10;;;;;;5054241;28;8841;-71
2021/12/01 05:05:56;;;;;;;;;63.25;53.00;10.10;46.10;;;;;;5054290;28;8799;-72
2021/12/01 05:08:23;;;;;;;;;59.00;50.75;10.10;46.30;;;;;;5058148;28;9471;-72
2021/12/01 05:10:49;;;;;;;;;59.75;51.00;10.40;45.70;;;;;;5058273;28;8793;-71
2021/12/01 05:13:16;;;;;;;;;58.75;49.50;10.20;46.50;;;;;;5058123;28;8779;-71
2021/12/01 05:15:42;;;;;;;;;58.75;48.75;10.10;46.60;;;;;;5058314;28;9425;-71
2021/12/01 05:18:08;;;;;;;;;54.75;46.25;10.20;46.70;;;;;;5058066;28;8790;-71
2021/12/01 05:20:35;;;;;;;;;53.75;46.75;10.20;46.40;;;;;;5058195;28;8793;-71
2021/12/01 05:23:01;;;;;;;;;61.25;51.75;10.30;46.30;;;;;;5058034;28;8751;-71
2021/12/01 05:25:27;;;;;;;;;58.50;50.50;10.10;46.30;;;;;;5058173;28;8762;-71
2021/12/01 05:27:53;;;;;;;;;59.25;51.25;10.30;46.40;;;;;;5056766;28;9536;-72
2021/12/01 05:30:20;;;;;;;;;60.75;52.25;10.10;47.00;;;;;;5057913;28;8789;-71
2021/12/01 05:32:47;;;;;;;;;68.00;57.00;9.90;47.20;;;;;;5057793;28;8775;-71
2021/12/01 05:35:13;;;;;;;;;64.25;54.50;10.00;47.50;;;;;;5057929;28;9488;-70
2021/12/01 05:37:39;;;;;;;;;57.50;49.50;10.10;46.70;;;;;;5057951;28;8770;-71
2021/12/01 05:40:06;;;;;;;;;65.50;54.00;10.20;47.00;;;;;;5066296;28;8819;-71
2021/12/01 05:42:31;;;;;;;;;63.75;53.75;10.30;46.70;;;;;;5063895;28;8776;-70
2021/12/01 05:44:57;;;;;;;;;153.50;144.25;10.20;46.90;;;;;;5073721;28;8779;-70
2021/12/01 05:47:23;;;;;;;;;165.75;157.25;9.10;52.30;;;;;;5061069;28;8816;-71
2021/12/01 05:49:49;;;;;;;;;191.25;183.25;8.40;55.30;;;;;;5067525;28;8775;-72
2021/12/01 05:52:16;;;;;;;;;168.25;153.50;8.10;57.30;;;;;;5073679;28;8871;-70
2021/12/01 05:54:43;;;;;;;;;184.25;176.00;7.80;58.30;;;;;;5073619;28;8764;-71
2021/12/01 05:57:10;;;;;;;;;169.25;166.00;7.70;58.80;;;;;;5064478;28;8791;-70
2021/12/01 05:59:36;;;;;;;;;208.50;204.25;7.90;58.50;;;;;;5066205;28;8831;-71
2021/12/01 06:02:02;;;;;;;;;209.25;194.50;8.30;57.00;;;;;;5059795;28;8854;-70
2021/12/01 06:04:28;;;;;;;;;207.25;195.75;8.50;56.00;;;;;;5069783;28;8760;-66
2021/12/01 06:06:54;;;;;;;;;243.25;229.75;8.60;55.90;;;;;;5076427;28;8795;-75
2021/12/01 06:09:20;;;;;;;;;252.75;240.00;8.60;56.20;;;;;;5075691;28;8974;-68
2021/12/01 06:11:47;;;;;;;;;237.50;226.50;8.60;56.40;;;;;;5077263;28;8907;-68
2021/12/01 06:14:14;;;;;;;;;261.25;245.50;8.40;56.90;;;;;;5077336;28;8870;-68
2021/12/01 06:16:42;;;;;;;;;278.50;259.25;8.10;58.10;;;;;;5077179;28;8792;-69
2021/12/01 06:19:09;;;;;;;;;261.50;248.00;8.40;58.00;;;;;;5076309;28;8823;-69
2021/12/01 06:21:34;;;;;;;;;269.00;248.25;8.50;57.00;;;;;;5076838;28;8887;-69
2021/12/01 06:24:00;;;;;;;;;257.75;229.75;8.60;56.60;;;;;;5076777;28;8905;-70
2021/12/01 06:26:26;;;;;;;;;259.00;245.25;8.90;56.00;;;;;;5076811;28;8780;-69
2021/12/01 06:28:52;;;;;;;;;222.75;213.75;9.30;55.10;;;;;;5077008;28;8776;-72
2021/12/01 06:31:18;;;;;;;;;234.75;208.00;9.50;53.80;;;;;;5076711;28;8787;-73
2021/12/01 06:33:44;;;;;;;;;220.50;201.25;9.80;52.20;;;;;;5075602;28;8772;-73
2021/12/01 06:36:09;;;;;;;;;209.50;193.00;9.70;51.30;;;;;;5076556;28;9445;-72
2021/12/01 06:38:35;;;;;;;;;217.25;202.50;9.80;50.80;;;;;;5076639;28;8785;-72
2021/12/01 06:41:02;;;;;;;;;205.00;195.25;9.80;50.60;;;;;;5076751;28;8808;-72
2021/12/01 06:43:28;;;;;;;;;223.75;213.25;9.90;50.30;;;;;;5076758;28;8898;-72
2021/12/01 06:45:54;;;;;;;;;268.00;247.50;9.70;51.60;;;;;;5076382;28;9430;-73
2021/12/01 06:48:19;;;;;;;;;253.75;238.50;9.60;52.00;;;;;;5076391;28;8772;-73
2021/12/01 06:50:45;;;;;;;;;322.25;293.75;9.70;51.00;;;;;;5076345;28;8784;-73
2021/12/01 06:53:11;;;;;;;;;290.00;270.75;9.60;52.50;;;;;;5075205;28;9437;-72
2021/12/01 06:55:37;;;;;;;;;274.75;249.00;9.70;52.20;;;;;;5076440;28;8764;-72
2021/12/01 06:58:03;;;;;;;;;266.25;237.50;9.70;51.20;;;;;;5076409;28;9475;-72
2021/12/01 07:00:30;;;;;;;;;257.00;233.50;9.90;51.90;;;;;;5076350;28;8797;-72
2021/12/01 07:02:56;;;;;;;;;284.50;260.25;10.10;50.60;;;;;;5076071;28;8780;-72
2021/12/01 07:05:22;;;;;;;;;265.50;251.00;9.70;51.10;;;;;;5075953;28;9457;-72
2021/12/01 07:07:48;;;;;;;;;255.00;243.75;9.50;51.60;;;;;;5075960;28;8780;-72
2021/12/01 07:10:15;;;;;;;;;247.75;234.50;9.50;51.40;;;;;;5076101;28;8777;-72
2021/12/01 07:12:43;;;;;;;;;247.75;219.00;9.80;51.10;;;;;;5076129;28;8785;-73
2021/12/01 07:15:10;;;;;;;;;241.25;232.25;9.90;50.60;;;;;;5075870;28;8775;-73
2021/12/01 07:17:36;;;;;;;;;202.00;193.25;10.20;50.10;;;;;;5075828;28;9410;-73
2021/12/01 07:20:04;;;;;;;;;229.00;212.75;9.90;49.30;;;;;;5075978;28;9504;-73
2021/12/01 07:22:30;;;;;;;;;193.75;184.75;9.80;49.70;;;;;;5075679;28;8788;-75
2021/12/01 07:24:56;;;;;;;;;211.00;200.00;9.90;49.50;;;;;;5075668;28;8761;-71
2021/12/01 07:27:23;;;;;;;;;204.75;195.00;10.20;48.60;;;;;;5075540;28;8780;-70
2021/12/01 07:29:49;;;;;;;;;200.00;187.00;10.50;47.90;;;;;;5074497;28;8781;-72
2021/12/01 07:32:15;;;;;;;;;206.75;192.75;10.70;46.80;;;;;;5075685;28;8841;-72
2021/12/01 07:34:43;;;;;;;;;208.00;198.25;10.50;46.90;;;;;;5075736;28;8772;-73
2021/12/01 07:37:15;;;;;;;;;204.75;198.25;10.20;48.40;;;;;;5074404;28;8788;-73
2021/12/01 07:39:41;;;;;;;;;227.50;216.50;10.40;48.00;;;;;;5075542;28;9470;-71
2021/12/01 07:42:08;;;;;;;;;223.25;201.50;10.60;47.50;;;;;;5075412;28;8777;-72
2021/12/01 07:44:34;;;;;;;;;185.25;180.00;10.60;47.80;;;;;;5074260;28;8760;-71
2021/12/01 07:47:00;;;;;;;;;172.00;167.50;10.50;48.60;;;;;;5075100;28;8831;-73
2021/12/01 07:49:26;;;;;;;;;200.75;189.50;10.50;48.20;;;;;;5075165;28;8784;-71
2021/12/01 07:51:52;;;;;;;;;215.25;202.00;10.60;48.20;;;;;;5075133;28;8879;-72
2021/12/01 07:54:18;;;;;;;;;175.00;167.00;10.40;48.80;;;;;;5075140;28;8964;-72
2021/12/01 07:56:44;;;;;;;;;161.75;159.25;10.50;48.30;;;;;;5075307;28;8791;-72
2021/12/01 07:59:13;;;;;;;;;159.50;148.00;10.60;48.60;;;;;;5074938;28;8800;-72
2021/12/01 08:01:38;;;;;;;;;147.75;143.50;10.50;48.30;;;;;;5074997;28;8852;-71
2021/12/01 08:04:04;;;;;;;;;145.25;144.25;10.80;48.10;;;;;;5074840;28;8893;-71
2021/12/01 08:06:32;;;;;;;;;135.50;130.50;11.10;47.40;;;;;;5074600;28;8885;-71
2021/12/01 08:09:00;;;;;;;;;135.50;130.25;11.40;47.60;;;;;;5074940;28;8752;-74
2021/12/01 08:11:27;;;;;;;;;123.75;115.00;11.40;47.70;;;;;;5074592;28;8788;-71
2021/12/01 08:13:53;;;;;;;;;98.50;95.50;11.00;49.20;;;;;;5074712;28;8776;-73
2021/12/01 08:16:19;;;;;;;;;113.75;107.50;10.60;49.40;;;;;;5074477;28;8903;-71
2021/12/01 08:18:45;;;;;;;;;106.50;105.50;10.50;50.50;;;;;;5074449;28;8792;-72
2021/12/01 08:21:10;;;;;;;;;108.50;104.75;10.90;49.20;;;;;;5074370;28;8822;-73
2021/12/01 08:23:36;;;;;;;;;109.75;106.00;11.20;48.40;;;;;;5074802;28;8795;-72
2021/12/01 08:26:02;;;;;;;;;91.25;88.25;11.70;47.50;;;;;;5074747;28;8787;-71
2021/12/01 08:28:28;;;;;;;;;97.00;96.25;12.00;46.40;;;;;;5074521;28;8799;-72
2021/12/01 08:30:53;;;;;;;;;93.00;89.50;11.80;46.40;;;;;;5074538;28;8772;-72
2021/12/01 08:33:19;;;;;;;;;84.50;77.00;12.10;45.70;;;;;;5074698;28;8787;-73
2021/12/01 08:35:45;;;;;;;;;85.00;74.25;12.10;46.20;;;;;;5074396;28;9461;-74
2021/12/01 08:38:11;;;;;;;;;81.50;70.75;11.70;46.10;;;;;;5074367;28;8753;-73
2021/12/01 08:40:37;;;;;;;;;82.50;75.25;11.90;46.40;;;;;;5074124;28;8797;-71
2021/12/01 08:43:03;;;;;;;;;69.00;56.75;12.20;46.30;;;;;;5074610;28;9438;-72
2021/12/01 08:45:29;;;;;;;;;76.50;64.00;11.80;48.50;;;;;;5074166;28;8768;-73
2021/12/01 08:47:55;;;;;;;;;77.75;66.50;12.00;47.40;;;;;;5074515;28;8792;-73
2021/12/01 08:50:21;;;;;;;;;71.50;59.25;11.70;48.10;;;;;;5074224;28;9390;-72
2021/12/01 08:52:48;;;;;;;;;79.00;62.25;11.30;49.60;;;;;;5074329;28;8782;-72
2021/12/01 08:55:14;;;;;;;;;86.75;78.25;11.40;50.10;;;;;;5074165;28;8887;-72
2021/12/01 08:57:41;;;;;;;;;86.00;76.75;11.70;49.00;;;;;;5074145;28;8745;-72
2021/12/01 09:00:08;;;;;;;;;74.50;62.75;12.10;48.10;;;;;;5074203;28;8904;-74
2021/12/01 09:02:33;;;;;;;;;81.00;72.25;11.90;48.70;;;;;;5074180;28;8757;-73
2021/12/01 09:04:59;;;;;;;;;85.75;76.75;11.90;48.50;;;;;;5074109;28;8825;-73
2021/12/01 09:07:25;;;;;;;;;81.75;71.50;12.00;49.00;;;;;;5073750;28;8902;-72
2021/12/01 09:09:51;;;;;;;;;77.25;65.50;12.50;47.80;;;;;;5074015;28;8772;-72
2021/12/01 09:12:18;;;;;;;;;74.00;61.00;12.70;46.50;;;;;;5073931;28;8783;-72
2021/12/01 09:14:44;;;;;;;;;65.50;54.00;12.80;46.00;;;;;;5073991;28;8760;-73
2021/12/01 09:17:13;;;;;;;;;81.50;72.50;12.90;45.50;;;;;;5074299;28;8889;-72
2021/12/01 09:19:41;;;;;;;;;78.50;68.00;13.00;46.40;;;;;;5073805;28;8812;-72
2021/12/01 09:22:07;;;;;;;;;121.50;116.25;12.50;47.80;;;;;;5073865;28;8753;-71
2021/12/01 09:24:34;;;;;;;;;76.00;59.25;12.10;48.60;;;;;;5073955;28;8772;-72
2021/12/01 09:27:00;;;;;;;;;83.25;73.00;12.30;45.90;;;;;;5073943;28;8862;-72
2021/12/01 09:29:27;;;;;;;;;68.75;57.75;12.10;46.50;;;;;;5073747;28;8772;-72
2021/12/01 09:31:55;;;;;;;;;69.75;55.75;12.10;47.90;;;;;;5074118;28;8845;-72
2021/12/01 09:34:21;;;;;;;;;74.50;61.00;12.00;48.10;;;;;;5073853;28;8752;-72
2021/12/01 09:36:47;;;;;;;;;79.50;69.50;12.00;48.30;;;;;;5073832;28;8854;-73
2021/12/01 09:39:12;;;;;;;;;64.00;52.00;12.10;47.90;;;;;;5073786;28;8896;-72
2021/12/01 09:41:39;;;;;;;;;62.50;52.50;12.40;48.00;;;;;;5073912;28;8753;-71
2021/12/01 09:44:05;;;;;;;;;61.25;51.00;12.30;48.30;;;;;;5073872;28;8772;-72
2021/12/01 09:46:31;;;;;;;;;49.00;42.00;12.20;48.20;;;;;;5073907;28;8912;-73
2021/12/01 09:48:58;;;;;;;;;45.75;40.50;12.30;47.00;;;;;;5073676;28;8761;-73
2021/12/01 09:51:23;;;;;;;;;64.50;53.50;12.60;46.80;;;;;;5073967;28;8760;-73
2021/12/01 09:53:49;;;;;;;;;72.25;57.00;12.70;45.00;;;;;;5076178;28;8795;-73
2021/12/01 09:56:16;;;;;;;;;75.00;64.00;13.20;43.20;;;;;;5077333;28;8902;-73
2021/12/01 09:58:43;;;;;;;;;101.25;97.00;13.80;41.00;;;;;;5077228;28;8760;-74
2021/12/01 10:01:12;;;;;;;;;92.25;90.50;14.10;40.60;;;;;;5077112;28;8827;-64
2021/12/01 10:03:40;;;;;;;;;97.00;86.75;15.40;39.60;;;;;;5077462;28;8863;-65
2021/12/01 10:06:23;;;;;;;;;82.50;74.25;18.40;35.40;;;;;;5077089;28;8855;-65
2021/12/01 10:08:57;;;;;;;;;50.00;42.00;21.90;29.20;;;;;;5073810;28;9477;-64
2021/12/01 10:11:28;;;;;;;;;51.33;44.33;23.20;27.00;;;;;;5077069;28;8787;-64
2021/12/01 10:14:00;;;;;;;;;52.00;44.00;24.40;25.80;;;;;;5076910;28;8776;-65
2021/12/01 10:16:28;;;;;;;;;56.00;47.00;25.90;23.90;;;;;;5075862;28;8848;-64
2021/12/01 10:19:00;;;;;;;;;55.33;46.00;28.30;22.40;;;;;;5076701;28;8780;-65
2021/12/01 10:21:29;;;;;;;;;49.00;41.00;28.00;22.40;;;;;;5077023;28;8780;-65
2021/12/01 10:23:58;;;;;;;;;44.00;38.00;28.70;21.30;;;;;;5076975;28;8756;-66
2021/12/01 10:26:25;;;;;;;;;45.00;39.00;29.40;20.80;;;;;;5076863;28;8772;-66
2021/12/01 10:28:57;;;;;;;;;47.33;41.00;29.70;20.40;;;;;;5076880;28;8776;-67
2021/12/01 10:31:30;;;;;;;;;44.33;38.33;30.30;19.90;;;;;;5076599;28;8768;-65
2021/12/01 10:34:16;;;;;;;;;46.00;39.67;31.70;19.70;;;;;;5076539;28;8776;-66
2021/12/01 10:36:42;;;;;;;;;52.00;44.00;34.40;18.10;;;;;;5076456;28;8805;-67
2021/12/01 10:39:08;;;;;;;;;55.33;47.00;34.00;17.60;;;;;;5076280;28;8903;-67
2021/12/01 10:41:38;;;;;;;;;48.33;41.33;34.30;17.50;;;;;;5076436;28;8748;-67
2021/12/01 10:44:15;;;;;;;;;45.67;39.00;34.40;17.20;;;;;;5076396;28;8772;-69
2021/12/01 10:46:47;;;;;;;;;29.33;29.33;33.70;17.50;;;;;;5076632;28;8812;-69
2021/12/01 10:49:13;;;;;;;;;23.25;22.75;34.30;16.60;;;;;;5076132;28;11584;-67
2021/12/01 10:51:43;;;;;;;;;25.75;25.75;32.90;17.20;;;;;;5076038;28;11531;-66
2021/12/01 10:54:18;;;;;;;;;26.25;26.25;33.10;17.50;;;;;;5076000;28;11613;-67
2021/12/01 10:56:44;;;;;;;;;30.50;29.50;32.90;17.60;;;;;;5076003;28;11498;-68
2021/12/01 10:59:12;;;;;;;;;29.25;29.25;32.90;17.40;;;;;;5075833;28;11521;-68
2021/12/01 11:01:38;;;;;;;;;25.75;25.75;32.80;17.60;;;;;;5076393;28;11497;-67
2021/12/01 11:04:05;;;;;;;;;29.00;29.00;33.90;17.30;;;;;;5075780;28;11494;-68
2021/12/01 11:06:37;;;;;;;;;32.33;31.33;34.90;16.60;;;;;;5075866;28;11522;-68
2021/12/01 11:09:02;;;;;;;;;21.00;21.00;34.30;17.20;;;;;;5075827;28;11521;-67
2021/12/01 11:11:54;;;;;;;;;21.00;21.00;33.40;17.40;;;;;;5075929;28;11495;-68
2021/12/01 11:14:22;;;;;;;;;13.75;13.75;34.70;16.90;;;;;;5075469;28;8776;-67
2021/12/01 11:16:47;;;;;;;;;9.50;9.50;34.20;16.80;;;;;;5075890;28;11506;-66
2021/12/01 11:19:15;;;;;;;;;11.00;11.00;31.20;18.00;;;;;;5075479;28;11499;-67
2021/12/01 11:21:41;;;;;;;;;10.00;10.00;29.70;19.40;;;;;;5075683;28;8905;-69
2021/12/01 11:24:09;;;;;;;;;7.50;7.50;30.20;19.50;;;;;;5075485;28;11485;-66
2021/12/01 11:26:36;;;;;;;;;10.00;10.00;30.50;19.10;;;;;;5075637;28;11451;-66
2021/12/01 11:29:08;;;;;;;;;9.00;9.00;31.00;18.50;;;;;;5075673;28;11454;-66
2021/12/01 11:31:36;;;;;;;;;4.75;4.25;30.20;18.70;;;;;;5075367;28;11609;-66
2021/12/01 11:34:05;;;;;;;;;8.25;8.25;28.90;19.50;;;;;;5075410;28;11388;-66
2021/12/01 11:36:37;;;;;;;;;8.50;8.50;29.40;19.50;;;;;;5075333;28;11542;-66
2021/12/01 11:39:07;;;;;;;;;9.75;9.75;28.80;19.80;;;;;;5075360;28;11406;-67
2021/12/01 11:41:36;;;;;;;;;11.50;11.50;28.30;19.30;;;;;;5075447;28;12202;-66
2021/12/01 11:44:04;;;;;;;;;9.75;9.75;28.90;19.60;;;;;;5075184;28;11576;-67
2021/12/01 11:46:32;;;;;;;;;12.00;12.00;29.10;19.10;;;;;;5075285;28;11490;-67
2021/12/01 11:49:03;;;;;;;;;12.75;12.75;30.00;19.10;;;;;;5075061;28;11512;-67
2021/12/01 11:51:35;;;;;;;;;13.25;13.25;29.80;19.00;;;;;;5075186;28;11460;-67
2021/12/01 11:54:09;;;;;;;;;17.00;17.00;29.20;19.60;;;;;;5074923;28;11446;-67
2021/12/01 11:56:37;;;;;;;;;12.00;12.00;30.70;18.90;;;;;;5075043;28;11498;-67
2021/12/01 11:59:06;;;;;;;;;11.75;11.75;30.40;18.80;;;;;;5074708;28;11449;-67
2021/12/01 12:01:36;;;;;;;;;9.00;9.00;30.20;18.60;;;;;;5074596;28;11479;-67
2021/12/01 12:04:05;;;;;;;;;10.25;10.25;28.80;19.70;;;;;;5073074;28;11454;-67
2021/12/01 12:06:33;;;;;;;;;7.75;7.75;29.10;19.50;;;;;;5074605;28;11487;-67
2021/12/01 12:09:01;;;;;;;;;12.00;12.00;29.60;19.20;;;;;;5074500;28;11441;-65
2021/12/01 12:11:37;;;;;;;;;11.50;11.50;30.00;19.40;;;;;;5074470;28;11533;-66
2021/12/01 12:14:04;;;;;;;;;10.50;10.50;29.90;19.30;;;;;;5074884;28;11485;-65
2021/12/01 12:16:31;;;;;;;;;14.25;14.25;29.70;20.50;;;;;;5074257;28;11489;-66
2021/12/01 12:18:58;;;;;;;;;11.75;11.75;30.10;19.60;;;;;;5074571;28;11556;-66
2021/12/01 12:24:18;;;;;;;;;9.50;9.50;29.30;19.20;;;;;;5074529;28;11455;-65
2021/12/01 12:26:48;;;;;;;;;7.00;7.00;29.10;19.80;;;;;;5074393;28;11481;-66
2021/12/01 12:29:18;;;;;;;;;10.00;10.00;28.70;19.90;;;;;;5074642;28;11536;-66
2021/12/01 12:31:47;;;;;;;;;10.00;10.00;29.50;19.40;;;;;;5074473;28;11424;-66
2021/12/01 12:34:21;;;;;;;;;8.50;8.50;29.70;19.20;;;;;;5069350;28;11456;-66
2021/12/01 12:36:50;;;;;;;;;3.75;3.75;29.30;19.60;;;;;;5062626;28;11504;-70
2021/12/01 12:39:25;;;;;;;;;5.75;5.75;29.40;19.90;;;;;;5062142;28;11492;-73
2021/12/01 12:42:05;;;;;;;;;11.00;11.00;29.70;19.50;;;;;;5067156;28;11560;-73
2021/12/01 12:44:31;;;;;;;;;10.50;10.00;29.10;19.40;;;;;;5066154;28;11476;-74